createdAt,value
2023-01-03T00:01:52.804Z,102116.31
2023-01-03T00:04:21.220Z,102110.28
2023-01-03T00:06:53.339Z,102105.03
2023-01-03T00:09:23.421Z,102106.34
2023-01-03T00:12:10.910Z,102110.69
2023-01-03T00:14:41.823Z,102104.00
2023-01-03T00:17:10.725Z,102103.34
2023-01-03T00:19:41.687Z,102108.22
2023-01-03T00:22:10.064Z,102106.06
2023-01-03T00:24:38.101Z,102103.13
2023-01-03T00:27:05.574Z,102097.72
2023-01-03T00:29:33.428Z,102099.53
2023-01-03T00:32:01.191Z,102096.78
2023-01-03T00:34:28.821Z,102095.00
2023-01-03T00:36:56.942Z,102095.50
2023-01-03T00:39:25.376Z,102101.59
2023-01-03T00:41:53.466Z,102099.88
2023-01-03T00:44:20.976Z,102105.69
2023-01-03T00:46:48.763Z,102109.84
2023-01-03T00:49:16.564Z,102118.34
2023-01-03T00:51:44.695Z,102129.56
2023-01-03T00:54:13.597Z,102115.06
2023-01-03T00:56:43.615Z,102119.56
2023-01-03T00:59:12.067Z,102120.06
2023-01-03T01:01:46.583Z,102113.84
2023-01-03T01:04:27.305Z,102115.63
2023-01-03T01:07:00.882Z,102118.28
2023-01-03T01:09:31.618Z,102118.63
2023-01-03T01:11:59.799Z,102116.78
2023-01-03T01:14:29.099Z,102124.13
2023-01-03T01:17:01.377Z,102119.22
2023-01-03T01:19:34.808Z,102114.03
2023-01-03T01:22:02.706Z,102113.34
2023-01-03T01:24:30.271Z,102122.31
2023-01-03T01:26:57.928Z,102117.31
2023-01-03T01:29:25.476Z,102120.53
2023-01-03T01:31:52.993Z,102115.25
2023-01-03T01:34:20.647Z,102118.97
2023-01-03T01:36:48.292Z,102117.09
2023-01-03T01:39:19.300Z,102120.81
2023-01-03T01:42:07.496Z,102114.22
2023-01-03T01:44:52.510Z,102125.31
2023-01-03T01:47:53.993Z,102129.09
2023-01-03T01:50:40.366Z,102135.50
2023-01-03T01:53:11.200Z,102136.31
2023-01-03T01:55:40.788Z,102138.97
2023-01-03T01:58:09.529Z,102135.56
2023-01-03T02:00:38.400Z,102136.78
2023-01-03T02:03:06.043Z,102130.41
2023-01-03T02:05:37.166Z,102129.56
2023-01-03T02:08:05.291Z,102145.78
2023-01-03T02:11:05.827Z,102140.34
2023-01-03T02:13:37.984Z,102145.25
2023-01-03T02:16:16.907Z,102140.75
2023-01-03T02:19:22.602Z,102148.84
2023-01-03T02:22:04.684Z,102156.63
2023-01-03T02:24:54.591Z,102149.22
2023-01-03T02:27:50.293Z,102148.63
2023-01-03T02:30:27.787Z,102150.16
2023-01-03T02:33:34.243Z,102154.09
2023-01-03T02:36:07.591Z,102154.19
2023-01-03T02:38:49.592Z,102156.84
2023-01-03T02:41:38.528Z,102151.59
2023-01-03T02:44:41.640Z,102160.88
2023-01-03T02:47:15.437Z,102154.72
2023-01-03T02:49:50.596Z,102160.41
2023-01-03T02:52:22.916Z,102150.88
2023-01-03T02:55:02.886Z,102151.56
2023-01-03T02:57:38.248Z,102145.53
2023-01-03T03:00:15.209Z,102145.50
2023-01-03T03:02:50.161Z,102141.28
2023-01-03T03:05:28.403Z,102138.81
2023-01-03T03:07:55.942Z,102140.34
2023-01-03T03:10:42.249Z,102135.03
2023-01-03T03:13:41.158Z,102135.69
2023-01-03T03:16:40.591Z,102131.44
2023-01-03T03:19:49.890Z,102130.75
2023-01-03T03:23:03.673Z,102136.31
2023-01-03T03:25:43.398Z,102142.34
2023-01-03T03:28:34.482Z,102129.00
2023-01-03T03:31:27.676Z,102134.94
2023-01-03T03:34:21.302Z,102133.59
2023-01-03T03:37:19.981Z,102127.44
2023-01-03T03:40:06.810Z,102127.63
2023-01-03T03:43:05.607Z,102123.25
2023-01-03T03:45:49.342Z,102132.00
2023-01-03T03:48:53.859Z,102130.75
2023-01-03T03:51:24.267Z,102129.50
2023-01-03T03:53:53.707Z,102138.16
2023-01-03T03:56:28.482Z,102129.81
2023-01-03T03:59:00.994Z,102133.09
2023-01-03T04:01:30.273Z,102121.78
2023-01-03T04:04:02.400Z,102131.44
2023-01-03T04:06:36.208Z,102135.31
2023-01-03T04:09:04.315Z,102130.22
2023-01-03T04:11:31.762Z,102123.25
2023-01-03T04:13:59.266Z,102126.56
2023-01-03T04:16:26.627Z,102129.34
2023-01-03T04:18:54.161Z,102134.25
2023-01-03T04:21:21.591Z,102130.09
2023-01-03T04:23:49.072Z,102134.19
2023-01-03T04:26:16.785Z,102149.41
2023-01-03T04:28:44.338Z,102147.81
2023-01-03T04:31:11.869Z,102141.16
2023-01-03T04:33:39.400Z,102139.69
2023-01-03T04:36:06.863Z,102138.81
2023-01-03T04:38:34.321Z,102134.59
2023-01-03T04:41:08.511Z,102138.28
2023-01-03T04:43:54.929Z,102139.94
2023-01-03T04:46:23.243Z,102134.59
2023-01-03T04:48:50.677Z,102139.16
2023-01-03T04:51:18.287Z,102134.53
2023-01-03T04:53:45.700Z,102140.63
2023-01-03T04:56:13.203Z,102142.06
2023-01-03T04:58:40.680Z,102144.38
2023-01-03T05:01:08.503Z,102144.66
2023-01-03T05:03:38.081Z,102140.19
2023-01-03T05:06:08.329Z,102137.97
2023-01-03T05:08:36.202Z,102141.22
2023-01-03T05:11:03.766Z,102148.50
2023-01-03T05:13:31.443Z,102138.63
2023-01-03T05:16:06.148Z,102140.03
2023-01-03T05:18:34.093Z,102142.81
2023-01-03T05:21:33.839Z,102144.66
2023-01-03T05:24:20.135Z,102147.78
2023-01-03T05:26:48.166Z,102149.38
2023-01-03T05:29:19.576Z,102143.31
2023-01-03T05:31:47.299Z,102140.81
2023-01-03T05:34:15.131Z,102153.22
2023-01-03T05:36:42.722Z,102148.88
2023-01-03T05:39:10.317Z,102155.59
2023-01-03T05:41:56.129Z,102160.28
2023-01-03T05:44:23.739Z,102160.06
2023-01-03T05:46:51.243Z,102165.78
2023-01-03T05:49:18.777Z,102166.59
2023-01-03T05:51:46.151Z,102167.88
2023-01-03T05:54:18.357Z,102172.50
2023-01-03T05:56:46.437Z,102175.44
2023-01-03T05:59:13.913Z,102174.34
2023-01-03T06:01:41.575Z,102179.31
2023-01-03T06:04:09.338Z,102186.91
2023-01-03T06:06:36.915Z,102180.25
2023-01-03T06:09:04.184Z,102180.69
2023-01-03T06:11:31.616Z,102182.66
2023-01-03T06:13:58.831Z,102176.94
2023-01-03T06:16:44.578Z,102176.66
2023-01-03T06:19:12.473Z,102165.66
2023-01-03T06:21:41.670Z,102162.66
2023-01-03T06:24:09.780Z,102161.84
2023-01-03T06:26:37.675Z,102157.41
2023-01-03T06:29:05.961Z,102152.66
2023-01-03T06:31:34.089Z,102150.13
2023-01-03T06:34:02.841Z,102152.59
2023-01-03T06:36:32.288Z,102149.91
2023-01-03T06:38:59.850Z,102164.38
2023-01-03T06:41:27.050Z,102159.88
2023-01-03T06:43:55.112Z,102150.34
2023-01-03T06:46:41.560Z,102156.19
2023-01-03T06:49:34.468Z,102165.97
2023-01-03T06:52:22.823Z,102154.56
2023-01-03T06:54:50.960Z,102156.44
2023-01-03T06:57:26.235Z,102159.13
2023-01-03T06:59:55.651Z,102162.94
2023-01-03T07:02:23.452Z,102162.00
2023-01-03T07:04:51.243Z,102161.41
2023-01-03T07:07:18.840Z,102163.81
2023-01-03T07:09:46.357Z,102171.16
2023-01-03T07:12:32.546Z,102177.91
2023-01-03T07:15:00.226Z,102173.47
2023-01-03T07:17:27.806Z,102167.88
2023-01-03T07:19:55.290Z,102168.00
2023-01-03T07:22:22.790Z,102169.72
2023-01-03T07:24:50.157Z,102173.34
2023-01-03T07:27:17.371Z,102180.03
2023-01-03T07:29:44.793Z,102188.97
2023-01-03T07:32:12.237Z,102181.97
2023-01-03T07:34:39.561Z,102183.03
2023-01-03T07:37:06.687Z,102187.31
2023-01-03T07:39:34.104Z,102191.34
2023-01-03T07:42:19.770Z,102193.16
2023-01-03T07:44:47.110Z,102183.81
2023-01-03T07:47:14.705Z,102200.19
2023-01-03T07:49:42.114Z,102188.13
2023-01-03T07:52:09.643Z,102188.19
2023-01-03T07:54:37.286Z,102178.06
2023-01-03T07:57:04.693Z,102181.63
2023-01-03T07:59:32.135Z,102181.09
2023-01-03T08:01:59.684Z,102175.25
2023-01-03T08:04:27.293Z,102164.72
2023-01-03T08:06:54.934Z,102172.72
2023-01-03T08:09:41.211Z,102163.28
2023-01-03T08:12:28.792Z,102165.31
2023-01-03T08:14:56.258Z,102188.94
2023-01-03T08:17:23.481Z,102182.47
2023-01-03T08:19:50.803Z,102185.56
2023-01-03T08:22:18.111Z,102192.00
2023-01-03T08:24:45.755Z,102192.88
2023-01-03T08:27:13.339Z,102199.53
2023-01-03T08:29:41.125Z,102203.56
2023-01-03T08:32:08.705Z,102208.66
2023-01-03T08:34:41.904Z,102202.81
2023-01-03T08:37:11.391Z,102204.03
2023-01-03T08:39:49.006Z,102204.03
2023-01-03T08:42:21.148Z,102201.69
2023-01-03T08:44:49.895Z,102206.09
2023-01-03T08:47:18.061Z,102213.25
2023-01-03T08:49:45.702Z,102214.56
2023-01-03T08:52:13.226Z,102232.00
2023-01-03T08:54:41.015Z,102228.72
2023-01-03T08:57:08.618Z,102235.16
2023-01-03T08:59:36.424Z,102238.56
2023-01-03T09:02:04.119Z,102238.16
2023-01-03T09:04:31.997Z,102234.50
2023-01-03T09:06:59.498Z,102236.72
2023-01-03T09:09:27.040Z,102243.34
2023-01-03T09:11:54.271Z,102238.88
2023-01-03T09:14:21.728Z,102239.88
2023-01-03T09:16:49.614Z,102237.50
2023-01-03T09:19:17.546Z,102245.72
2023-01-03T09:21:45.009Z,102242.38
2023-01-03T09:24:12.586Z,102247.09
2023-01-03T09:26:40.080Z,102238.81
2023-01-03T09:29:07.581Z,102232.06
2023-01-03T09:31:35.384Z,102224.63
2023-01-03T09:34:05.383Z,102222.25
2023-01-03T09:36:33.301Z,102224.22
2023-01-03T09:39:00.864Z,102226.69
2023-01-03T09:41:28.827Z,102219.44
2023-01-03T09:44:08.217Z,102233.78
2023-01-03T09:46:37.140Z,102227.97
2023-01-03T09:49:07.210Z,102221.31
2023-01-03T09:51:56.611Z,102231.78
2023-01-03T09:54:52.225Z,102234.41
2023-01-03T09:57:53.138Z,102232.78
2023-01-03T10:00:42.093Z,102231.75
2023-01-03T10:03:30.967Z,102236.22
2023-01-03T10:06:25.604Z,102237.00
2023-01-03T10:09:43.780Z,102238.09
2023-01-03T10:12:35.871Z,102240.31
2023-01-03T10:15:18.385Z,102232.09
2023-01-03T10:17:56.345Z,102223.72
2023-01-03T10:20:47.002Z,102225.97
2023-01-03T10:23:15.213Z,102231.50
2023-01-03T10:25:46.457Z,102229.59
2023-01-03T10:28:24.429Z,102222.78
2023-01-03T10:31:19.071Z,102228.41
2023-01-03T10:33:50.558Z,102223.81
2023-01-03T10:36:20.068Z,102224.97
2023-01-03T10:38:52.808Z,102229.63
2023-01-03T10:41:32.081Z,102224.16
2023-01-03T10:44:04.183Z,102226.03
2023-01-03T10:46:32.263Z,102227.91
2023-01-03T10:49:27.406Z,102228.09
2023-01-03T10:52:10.396Z,102221.44
2023-01-03T10:54:43.928Z,102212.59
2023-01-03T10:57:48.251Z,102216.19
2023-01-03T11:00:34.857Z,102218.06
2023-01-03T11:03:16.395Z,102206.44
2023-01-03T11:05:57.667Z,102204.25
2023-01-03T11:08:37.845Z,102202.41
2023-01-03T11:11:05.440Z,102206.16
2023-01-03T11:13:43.314Z,102214.72
2023-01-03T11:16:19.623Z,102194.53
2023-01-03T11:19:05.311Z,102205.63
2023-01-03T11:21:56.587Z,102210.84
2023-01-03T11:24:43.815Z,102191.56
2023-01-03T11:27:11.443Z,102195.22
2023-01-03T11:29:48.011Z,102190.75
2023-01-03T11:32:32.656Z,102200.34
2023-01-03T11:35:24.054Z,102193.09
2023-01-03T11:37:55.523Z,102194.16
2023-01-03T11:40:38.440Z,102198.56
2023-01-03T11:43:24.386Z,102182.44
2023-01-03T11:46:21.365Z,102195.63
2023-01-03T11:49:09.938Z,102188.59
2023-01-03T11:51:43.337Z,102193.78
2023-01-03T11:54:49.322Z,102187.53
2023-01-03T11:57:51.235Z,102192.53
2023-01-03T12:00:44.298Z,102180.22
2023-01-03T12:03:17.521Z,102180.34
2023-01-03T12:05:58.422Z,102183.72
2023-01-03T12:08:46.225Z,102180.22
2023-01-03T12:11:29.056Z,102163.44
2023-01-03T12:14:24.780Z,102171.34
2023-01-03T12:17:18.240Z,102163.34
2023-01-03T12:19:45.973Z,102158.03
2023-01-03T12:22:18.634Z,102171.22
2023-01-03T12:25:25.128Z,102164.09
2023-01-03T12:28:11.232Z,102168.53
2023-01-03T12:30:53.194Z,102156.13
2023-01-03T12:33:42.928Z,102162.19
2023-01-03T12:36:22.466Z,102152.50
2023-01-03T12:39:08.538Z,102144.81
2023-01-03T12:44:44.727Z,102146.44
2023-01-03T12:47:23.937Z,102146.53
2023-01-03T12:50:03.134Z,102145.53
2023-01-03T12:52:33.993Z,102139.47
2023-01-03T12:55:29.253Z,102140.06
2023-01-03T12:58:00.206Z,102147.16
2023-01-03T13:00:52.940Z,102146.34
2023-01-03T13:03:26.723Z,102135.78
2023-01-03T13:06:03.102Z,102145.53
2023-01-03T13:08:33.638Z,102147.22
2023-01-03T13:11:18.456Z,102123.44
2023-01-03T13:13:52.714Z,102125.31
2023-01-03T13:16:53.371Z,102122.97
2023-01-03T13:19:23.655Z,102119.56
2023-01-03T13:21:53.921Z,102113.41
2023-01-03T13:24:51.425Z,102109.06
2023-01-03T13:27:24.897Z,102110.19
2023-01-03T13:29:58.842Z,102108.53
2023-01-03T13:32:34.634Z,102097.94
2023-01-03T13:35:06.463Z,102089.25
2023-01-03T13:37:36.849Z,102098.72
2023-01-03T13:43:21.573Z,102086.59
2023-01-03T13:45:52.875Z,102084.72
2023-01-03T13:48:30.479Z,102090.00
2023-01-03T13:51:11.699Z,102081.31
2023-01-03T13:54:00.758Z,102076.16
2023-01-03T13:56:56.435Z,102084.09
2023-01-03T13:59:35.616Z,102078.72
2023-01-03T14:02:33.369Z,102070.91
2023-01-03T14:05:37.528Z,102072.50
2023-01-03T14:08:30.406Z,102056.94
2023-01-03T14:11:25.709Z,102055.81
2023-01-03T14:14:21.202Z,102052.31
2023-01-03T14:16:52.946Z,102050.75
2023-01-03T14:19:32.482Z,102049.91
2023-01-03T14:22:28.208Z,102045.56
2023-01-03T14:24:57.782Z,102037.03
2023-01-03T14:27:36.132Z,102026.41
2023-01-03T14:30:05.097Z,102030.63
2023-01-03T14:32:37.655Z,102040.97
2023-01-03T14:35:05.656Z,102041.09
2023-01-03T14:37:35.109Z,102028.06
2023-01-03T14:40:05.667Z,102032.50
2023-01-03T14:42:33.215Z,102036.56
2023-01-03T14:45:04.493Z,102040.03
2023-01-03T14:47:33.862Z,102033.03
2023-01-03T14:50:02.492Z,102030.38
2023-01-03T14:52:34.434Z,102045.03
2023-01-03T14:55:17.103Z,102028.63
2023-01-03T14:57:47.144Z,102027.75
2023-01-03T15:00:30.168Z,102032.94
2023-01-03T15:03:02.586Z,102033.91
2023-01-03T15:05:41.354Z,102036.41
2023-01-03T15:08:19.418Z,102035.44
2023-01-03T15:11:00.415Z,102028.50
2023-01-03T15:13:55.651Z,102025.03
2023-01-03T15:16:23.231Z,102010.91
2023-01-03T15:18:50.858Z,102029.34
2023-01-03T15:21:21.871Z,102024.94
2023-01-03T15:23:50.361Z,102029.28
2023-01-03T15:26:38.016Z,102037.22
2023-01-03T15:29:18.232Z,102046.03
2023-01-03T15:31:56.702Z,102041.50
2023-01-03T15:34:41.956Z,102029.91
2023-01-03T15:37:22.019Z,102032.41
2023-01-03T15:39:52.493Z,102031.41
2023-01-03T15:42:45.200Z,102028.84
2023-01-03T15:45:30.118Z,102032.09
2023-01-03T15:48:00.769Z,102048.00
2023-01-03T15:50:40.265Z,102043.50
2023-01-03T15:53:22.950Z,102043.56
2023-01-03T15:55:52.727Z,102044.50
2023-01-03T15:58:20.350Z,102030.41
2023-01-03T16:00:49.005Z,102037.47
2023-01-03T16:03:18.764Z,102027.88
2023-01-03T16:05:46.385Z,102029.50
2023-01-03T16:08:24.053Z,102029.41
2023-01-03T16:10:52.331Z,102018.03
2023-01-03T16:13:21.109Z,102023.31
2023-01-03T16:15:48.802Z,102024.16
2023-01-03T16:18:20.789Z,102019.88
2023-01-03T16:20:48.533Z,102026.31
2023-01-03T16:23:25.764Z,102032.09
2023-01-03T16:25:54.191Z,102023.47
2023-01-03T16:28:22.283Z,102033.09
2023-01-03T16:30:58.481Z,102031.06
2023-01-03T16:33:30.130Z,102027.75
2023-01-03T16:35:58.321Z,102029.47
2023-01-03T16:38:26.941Z,102032.78
2023-01-03T16:40:54.899Z,102030.16
2023-01-03T16:43:26.616Z,102036.34
2023-01-03T16:45:59.164Z,102024.03
2023-01-03T16:48:33.849Z,102026.34
2023-01-03T16:51:01.633Z,102023.09
2023-01-03T16:53:35.941Z,102028.28
2023-01-03T16:56:04.727Z,102021.34
2023-01-03T16:58:32.173Z,102025.59
2023-01-03T17:01:03.757Z,102025.72
2023-01-03T17:03:41.235Z,102027.56
2023-01-03T17:06:37.403Z,102027.53
2023-01-03T17:09:19.247Z,102027.53
2023-01-03T17:11:47.541Z,102031.00
2023-01-03T17:14:20.918Z,102030.03
2023-01-03T17:16:50.128Z,102029.16
2023-01-03T17:20:02.840Z,102036.94
2023-01-03T17:22:20.763Z,102023.84
2023-01-03T17:24:50.266Z,102035.88
2023-01-03T17:27:31.955Z,102034.50
2023-01-03T17:30:04.711Z,102035.34
2023-01-03T17:32:32.609Z,102026.75
2023-01-03T17:35:00.156Z,102030.94
2023-01-03T17:37:27.656Z,102038.59
2023-01-03T17:39:57.042Z,102037.69
2023-01-03T17:42:26.811Z,102031.56
2023-01-03T17:45:16.354Z,102027.84
2023-01-03T17:48:07.082Z,102028.72
2023-01-03T17:50:34.675Z,102018.38
2023-01-03T17:53:02.517Z,102036.56
2023-01-03T17:55:31.220Z,102027.09
2023-01-03T17:58:02.101Z,102034.91
2023-01-03T18:00:30.514Z,102027.06
2023-01-03T18:03:00.408Z,102027.94
2023-01-03T18:05:30.022Z,102038.47
2023-01-03T18:08:00.279Z,102021.84
2023-01-03T18:10:45.681Z,102035.91
2023-01-03T18:13:27.052Z,102030.47
2023-01-03T18:15:55.393Z,102027.84
2023-01-03T18:18:24.808Z,102025.25
2023-01-03T18:20:53.386Z,102020.88
2023-01-03T18:23:31.607Z,102025.97
2023-01-03T18:26:03.737Z,102029.44
2023-01-03T18:28:31.913Z,102026.88
2023-01-03T18:30:59.538Z,102028.59
2023-01-03T18:33:27.269Z,102013.50
2023-01-03T18:35:54.678Z,102019.53
2023-01-03T18:38:29.571Z,102032.59
2023-01-03T18:41:04.301Z,102025.63
2023-01-03T18:43:32.711Z,102017.75
2023-01-03T18:46:00.317Z,102026.41
2023-01-03T18:48:27.931Z,102013.38
2023-01-03T18:50:59.302Z,102016.88
2023-01-03T18:53:34.139Z,102021.69
2023-01-03T18:56:03.054Z,102006.22
2023-01-03T18:58:36.698Z,102012.31
2023-01-03T19:01:05.971Z,102011.53
2023-01-03T19:03:36.096Z,102024.69
2023-01-03T19:06:17.007Z,102016.69
2023-01-03T19:08:44.923Z,102025.63
2023-01-03T19:11:18.545Z,102020.31
2023-01-03T19:13:51.825Z,102024.63
2023-01-03T19:16:25.467Z,102022.00
2023-01-03T19:18:54.341Z,102018.53
2023-01-03T19:21:25.681Z,102025.47
2023-01-03T19:23:58.949Z,102029.13
2023-01-03T19:26:42.396Z,102027.34
2023-01-03T19:29:20.585Z,102032.31
2023-01-03T19:31:50.122Z,102035.03
2023-01-03T19:34:20.234Z,102029.00
2023-01-03T19:36:51.175Z,102026.41
2023-01-03T19:39:24.762Z,102023.84
2023-01-03T19:42:15.052Z,102020.44
2023-01-03T19:44:43.204Z,102004.66
2023-01-03T19:47:16.063Z,102020.53
2023-01-03T19:49:44.995Z,102005.00
2023-01-03T19:52:12.523Z,102020.75
2023-01-03T19:54:40.579Z,102012.13
2023-01-03T19:57:32.246Z,102005.03
2023-01-03T20:00:02.017Z,102009.38
2023-01-03T20:02:40.958Z,102006.00
2023-01-03T20:05:18.122Z,102013.56
2023-01-03T20:07:49.404Z,102011.06
2023-01-03T20:10:24.175Z,102000.66
2023-01-03T20:12:55.156Z,102006.78
2023-01-03T20:15:26.404Z,102006.88
2023-01-03T20:17:54.758Z,102004.31
2023-01-03T20:20:24.271Z,102002.44
2023-01-03T20:23:06.415Z,102012.03
2023-01-03T20:25:37.143Z,102003.13
2023-01-03T20:28:05.972Z,102006.50
2023-01-03T20:30:34.595Z,102011.84
2023-01-03T20:33:02.091Z,101998.78
2023-01-03T20:38:25.817Z,102000.69
2023-01-03T20:40:57.125Z,101999.00
2023-01-03T20:43:25.216Z,102005.13
2023-01-03T20:45:56.433Z,101998.22
2023-01-03T20:48:26.227Z,102004.28
2023-01-03T20:50:54.283Z,102000.72
2023-01-03T20:53:24.813Z,102004.19
2023-01-03T20:55:53.266Z,101993.00
2023-01-03T20:58:26.429Z,102008.72
2023-01-03T21:01:01.981Z,102007.06
2023-01-03T21:03:34.055Z,102002.72
2023-01-03T21:06:03.239Z,102005.38
2023-01-03T21:08:49.392Z,102001.09
2023-01-03T21:11:17.198Z,102001.25
2023-01-03T21:13:44.688Z,101994.28
2023-01-03T21:16:39.610Z,101991.66
2023-01-03T21:19:11.732Z,101987.38
2023-01-03T21:21:40.432Z,101995.28
2023-01-03T21:24:10.003Z,101989.25
2023-01-03T21:26:37.757Z,101988.41
2023-01-03T21:29:05.470Z,101989.22
2023-01-03T21:31:34.424Z,101982.44
2023-01-03T21:34:06.935Z,101985.16
2023-01-03T21:36:35.930Z,101978.16
2023-01-03T21:39:04.491Z,101993.00
2023-01-03T21:41:35.302Z,101986.06
2023-01-03T21:44:04.368Z,102001.75
2023-01-03T21:46:31.943Z,102010.47
2023-01-03T21:48:59.680Z,101999.22
2023-01-03T21:51:37.919Z,102001.72
2023-01-03T21:54:08.150Z,102002.78
2023-01-03T21:56:45.352Z,102015.06
2023-01-03T21:59:15.669Z,102014.22
2023-01-03T22:02:03.644Z,102014.25
2023-01-03T22:04:32.195Z,102005.50
2023-01-03T22:07:02.864Z,102004.56
2023-01-03T22:09:50.447Z,102012.38
2023-01-03T22:12:19.435Z,102015.16
2023-01-03T22:14:47.200Z,102010.72
2023-01-03T22:17:15.479Z,102010.78
2023-01-03T22:19:43.339Z,102002.94
2023-01-03T22:22:10.837Z,102000.22
2023-01-03T22:24:38.418Z,102001.19
2023-01-03T22:27:06.348Z,101994.13
2023-01-03T22:29:33.826Z,102005.34
2023-01-03T22:32:01.464Z,102005.34
2023-01-03T22:34:29.068Z,102000.31
2023-01-03T22:36:56.625Z,101982.78
2023-01-03T22:39:24.226Z,101987.03
2023-01-03T22:41:51.767Z,101991.72
2023-01-03T22:44:19.250Z,101992.56
2023-01-03T22:46:46.731Z,101996.97
2023-01-03T22:49:14.366Z,101988.28
2023-01-03T22:51:41.926Z,102000.50
2023-01-03T22:54:09.299Z,102000.56
2023-01-03T22:56:36.782Z,102000.53
2023-01-03T22:59:04.176Z,101991.84
2023-01-03T23:01:31.846Z,102004.97
2023-01-03T23:04:01.144Z,101993.69
2023-01-03T23:06:30.649Z,101995.50
2023-01-03T23:08:58.291Z,102001.59
2023-01-03T23:11:46.882Z,101992.91
2023-01-03T23:14:20.085Z,101993.69
2023-01-03T23:16:48.399Z,101994.63
2023-01-03T23:19:20.825Z,101991.16
2023-01-03T23:21:48.288Z,101987.75
2023-01-03T23:24:24.108Z,101989.38
2023-01-03T23:26:52.787Z,101994.44
2023-01-03T23:29:21.297Z,101998.69
2023-01-03T23:31:48.933Z,101987.41
2023-01-03T23:34:16.388Z,101984.00
2023-01-03T23:36:44.280Z,101985.84
2023-01-03T23:39:17.295Z,101984.06
2023-01-03T23:41:45.818Z,101974.53
2023-01-03T23:44:13.609Z,101956.19
2023-01-03T23:46:41.446Z,101978.81
2023-01-03T23:49:12.370Z,101965.88
2023-01-03T23:51:39.893Z,101976.25
2023-01-03T23:54:07.410Z,101971.91
2023-01-03T23:56:34.876Z,101970.19
2023-01-03T23:59:02.267Z,101972.84
